Time;durP1;ratioP1;P1;durP2;ratioP2;P2;SDS_P1;SDS_P2;PMS_P1;PMS_P2;Temp;Humidity;BMP_temperature;BMP_pressure;BME280_temperature;BME280_humidity;BME280_pressure;Samples;Min_cycle;Max_cycle;Signal;HPM_P1;HPM_P2
2021/12/05 00:23:23;;;;;;;;;19.25;16.50;;;;;4.51;83.65;100787.59;5034346;28;12330;-72
2021/12/05 00:26:20;;;;;;;;;9.50;9.50;;;;;4.49;84.09;100794.47;5033495;28;11585;-73
2021/12/05 00:32:31;;;;;;;;;10.25;10.25;;;;;4.80;83.64;100787.59;5033177;28;11521;-73
2021/12/05 00:39:11;;;;;;;;;12.25;12.25;;;;;4.60;83.25;100788.63;5033152;28;11513;-73
2021/12/05 01:07:06;;;;;;;;;6.00;6.00;;;;;4.79;83.74;100791.44;5032466;28;11088;-72
2021/12/05 01:15:43;;;;;;;;;10.00;10.00;;;;;4.63;83.68;100795.44;5033427;28;11528;-73
2021/12/05 01:18:40;;;;;;;;;12.00;12.00;;;;;4.77;83.11;100790.91;5032233;28;12380;-74
2021/12/05 01:21:39;;;;;;;;;13.00;13.00;;;;;4.67;83.23;100791.00;5032173;28;11496;-72
2021/12/05 01:28:05;;;;;;;;;10.50;10.50;;;;;4.71;83.31;100783.84;5031846;28;11523;-73
2021/12/05 01:31:27;;;;;;;;;6.25;6.25;;;;;4.72;83.91;100775.34;5032069;28;11498;-73
2021/12/05 01:59:25;;;;;;;;;8.75;8.75;;;;;4.81;82.83;100764.56;5025661;28;11558;-73
2021/12/05 02:09:07;;;;;;;;;8.00;8.00;;;;;4.58;84.60;100763.41;5032045;28;12274;-73
2021/12/05 02:40:26;;;;;;;;;12.00;12.00;;;;;4.50;85.61;100747.63;5036347;28;11537;-73
2021/12/05 02:46:01;;;;;;;;;11.00;11.00;;;;;4.38;85.97;100755.41;5035977;28;11589;-73
2021/12/05 02:49:02;;;;;;;;;11.75;11.75;;;;;4.27;86.84;100760.16;5035438;28;11528;-73
2021/12/05 02:52:06;;;;;;;;;10.50;10.50;;;;;4.22;86.77;100762.09;5035871;28;11574;-73
2021/12/05 02:55:22;;;;;;;;;11.50;11.50;;;;;4.30;86.77;100770.53;5035836;28;11674;-73
2021/12/05 02:58:01;;;;;;;;;9.00;9.00;;;;;4.26;86.89;100769.47;5036609;28;11546;-73
2021/12/05 03:03:32;;;;;;;;;10.50;10.50;;;;;4.39;86.87;100776.22;5036385;28;11528;-73
2021/12/05 03:06:32;;;;;;;;;11.50;11.00;;;;;4.57;86.48;100774.69;5046815;28;11544;-74
2021/12/05 03:09:10;;;;;;;;;8.75;8.75;;;;;4.57;86.81;100769.19;5035938;28;11568;-73
2021/12/05 03:12:09;;;;;;;;;7.00;7.00;;;;;4.60;86.54;100766.72;5037051;28;11551;-74
2021/12/05 03:15:09;;;;;;;;;8.75;8.75;;;;;4.51;86.43;100771.16;5035731;28;11508;-73
2021/12/05 03:18:05;;;;;;;;;9.00;9.00;;;;;4.46;86.20;100761.09;5036150;28;11562;-73
2021/12/05 03:21:04;;;;;;;;;10.00;10.00;;;;;4.46;86.71;100774.78;5035234;28;11607;-73
2021/12/05 03:23:32;;;;;;;;;9.50;9.50;;;;;4.25;87.65;100767.03;5018720;28;12375;-73
2021/12/05 03:26:33;;;;;;;;;11.75;11.75;;;;;4.26;87.86;100787.81;5033821;28;12241;-73
2021/12/05 03:29:29;;;;;;;;;9.50;9.50;;;;;4.33;87.95;100786.38;5035230;28;11552;-73
2021/12/05 03:32:25;;;;;;;;;16.25;14.50;;;;;4.31;87.91;100785.88;5027927;28;11506;-73
2021/12/05 03:34:53;;;;;;;;;14.00;14.00;;;;;4.31;88.23;100785.88;5034216;28;11539;-74
2021/12/05 03:37:50;;;;;;;;;8.50;8.50;;;;;4.31;88.06;100782.31;5036697;28;11548;-73
2021/12/05 03:40:46;;;;;;;;;8.50;8.50;;;;;4.33;87.97;100775.44;5036547;28;11508;-73
2021/12/05 03:43:28;;;;;;;;;12.25;12.00;;;;;4.49;87.39;100795.28;5035594;28;11543;-73
2021/12/05 03:46:24;;;;;;;;;14.25;14.25;;;;;4.50;87.15;100791.44;5034875;28;11561;-73
2021/12/05 03:49:21;;;;;;;;;14.75;14.75;;;;;4.22;87.75;100800.44;5035647;28;11563;-73
2021/12/05 03:52:20;;;;;;;;;15.50;15.50;;;;;4.16;88.25;100808.69;5035590;28;11721;-73
2021/12/05 03:55:16;;;;;;;;;11.50;11.50;;;;;4.12;88.19;100809.53;5034900;28;11664;-73
2021/12/05 03:58:12;;;;;;;;;14.75;13.25;;;;;4.07;88.41;100809.59;5034470;28;11668;-73
2021/12/05 04:01:10;;;;;;;;;14.75;14.75;;;;;4.01;89.55;100808.00;5014834;28;11694;-73
2021/12/05 04:04:07;;;;;;;;;17.00;15.25;;;;;4.04;89.29;100805.50;5014745;28;11658;-73
2021/12/05 04:07:04;;;;;;;;;20.25;20.25;;;;;3.81;89.44;100812.47;5037991;28;11631;-73
2021/12/05 04:09:59;;;;;;;;;16.50;16.50;;;;;3.76;89.77;100817.19;5028880;28;11680;-73
2021/12/05 04:12:57;;;;;;;;;20.75;20.75;;;;;3.75;90.44;100821.00;5033922;28;11518;-73
2021/12/05 04:15:25;;;;;;;;;29.00;27.75;;;;;3.66;90.69;100825.44;5034559;28;11601;-73
2021/12/05 04:18:21;;;;;;;;;29.25;28.00;;;;;3.68;90.61;100835.00;5033916;28;12319;-73
2021/12/05 04:20:50;;;;;;;;;33.00;32.50;;;;;3.74;90.84;100835.78;5033344;28;11562;-73
2021/12/05 04:23:19;;;;;;;;;28.75;28.75;;;;;3.56;90.92;100835.31;5034229;28;11596;-72
2021/12/05 04:25:56;;;;;;;;;21.50;21.00;;;;;3.79;90.53;100841.22;5034728;28;11624;-72
2021/12/05 04:28:53;;;;;;;;;19.25;19.25;;;;;3.55;90.73;100844.63;5034039;28;11576;-72
2021/12/05 04:31:21;;;;;;;;;20.75;18.00;;;;;3.68;90.44;100850.56;5034548;28;11593;-72
2021/12/05 04:34:17;;;;;;;;;15.75;15.75;;;;;3.55;90.65;100841.06;5033704;28;11554;-72
2021/12/05 04:37:13;;;;;;;;;19.00;19.00;;;;;3.81;90.31;100845.31;5034173;28;11661;-72
2021/12/05 04:40:10;;;;;;;;;30.00;27.25;;;;;3.71;90.23;100847.28;5033588;28;11534;-72
2021/12/05 04:43:06;;;;;;;;;25.50;25.50;;;;;3.50;90.73;100850.09;5033680;28;11661;-72
2021/12/05 04:45:35;;;;;;;;;33.50;33.25;;;;;3.59;90.87;100853.88;5033729;28;12428;-72
2021/12/05 04:48:06;;;;;;;;;29.25;29.25;;;;;3.67;90.61;100862.63;5033545;28;11629;-72
2021/12/05 04:50:44;;;;;;;;;32.75;30.00;;;;;3.69;90.01;100864.00;5032878;28;11533;-72
2021/12/05 04:53:16;;;;;;;;;32.00;30.25;;;;;3.66;90.23;100869.19;5033001;28;11575;-72
2021/12/05 04:55:44;;;;;;;;;34.25;34.25;;;;;3.74;90.08;100874.06;5032178;28;11622;-72
2021/12/05 04:58:12;;;;;;;;;24.75;24.75;;;;;3.81;89.50;100877.31;5033126;28;11574;-72
2021/12/05 05:01:07;;;;;;;;;25.50;24.25;;;;;3.89;89.65;100882.22;5024965;28;11546;-73
2021/12/05 05:03:59;;;;;;;;;23.00;20.25;;;;;3.75;89.76;100892.13;5024948;28;11525;-72
2021/12/05 05:06:27;;;;;;;;;29.00;28.50;;;;;3.73;89.96;100889.66;5033021;28;11548;-73
2021/12/05 05:09:22;;;;;;;;;18.00;15.25;;;;;3.63;89.53;100897.94;5040194;28;11652;-72
2021/12/05 05:11:50;;;;;;;;;27.00;25.25;;;;;3.78;89.45;100900.59;5032009;28;11520;-72
2021/12/05 05:14:46;;;;;;;;;26.75;25.75;;;;;3.84;89.74;100904.97;5032601;28;11568;-72
2021/12/05 05:17:15;;;;;;;;;35.00;31.00;;;;;3.86;88.93;100904.66;5032455;28;11683;-72
2021/12/05 05:20:24;;;;;;;;;31.00;31.00;;;;;3.85;88.88;100911.25;5025128;28;11634;-72
2021/12/05 05:51:08;;;;;;;;;38.75;37.25;;;;;3.55;89.27;100923.94;5022771;28;11588;-72
2021/12/05 05:53:37;;;;;;;;;39.25;36.00;;;;;3.78;89.48;100929.88;5026721;28;11579;-72
2021/12/05 05:56:15;;;;;;;;;35.00;35.00;;;;;3.89;88.55;100921.31;5031082;28;12350;-71
2021/12/05 05:58:58;;;;;;;;;37.25;35.50;;;;;3.80;88.84;100919.47;5031234;28;11631;-72
2021/12/05 06:04:13;;;;;;;;;46.25;42.00;;;;;4.08;88.31;100931.66;5013961;28;11552;-72
2021/12/05 06:06:55;;;;;;;;;36.25;36.25;;;;;4.03;88.26;100935.22;5031535;28;11654;-73
2021/12/05 06:09:36;;;;;;;;;28.00;26.75;;;;;4.06;87.75;100928.38;5024814;28;11701;-73
2021/12/05 06:12:14;;;;;;;;;26.50;26.00;;;;;4.14;87.48;100925.03;5031079;28;11553;-72
2021/12/05 06:14:56;;;;;;;;;30.50;27.50;;;;;4.16;87.19;100933.81;5026953;28;11564;-72
2021/12/05 06:17:36;;;;;;;;;23.00;20.00;;;;;3.92;87.36;100930.91;5009003;28;11582;-72
2021/12/05 06:20:32;;;;;;;;;22.75;22.75;;;;;4.22;86.92;100938.16;5030947;28;11546;-72
2021/12/05 06:23:00;;;;;;;;;27.50;24.25;;;;;4.10;86.62;100923.97;5030790;28;11633;-72
2021/12/05 06:25:33;;;;;;;;;19.00;18.00;;;;;4.20;86.56;100929.38;5046097;28;11529;-72
2021/12/05 06:28:10;;;;;;;;;20.00;18.75;;;;;4.29;86.94;100930.44;5015000;28;11508;-72
2021/12/05 06:39:39;;;;;;;;;22.75;22.00;;;;;4.42;86.07;100926.25;5031297;28;12166;-73
2021/12/05 06:47:50;;;;;;;;;19.00;19.00;;;;;4.54;84.79;100937.69;5023191;28;11532;-73
2021/12/05 06:50:46;;;;;;;;;25.50;25.50;;;;;4.56;84.82;100953.81;5029335;28;11617;-72
2021/12/05 06:53:28;;;;;;;;;15.50;15.50;;;;;4.51;84.24;100945.63;5030448;28;11618;-73
2021/12/05 06:56:25;;;;;;;;;20.25;20.25;;;;;4.64;84.31;100951.28;5024027;28;11539;-72
2021/12/05 06:59:20;;;;;;;;;23.75;20.50;;;;;4.72;83.85;100945.22;5027685;28;11531;-72
2021/12/05 07:02:02;;;;;;;;;24.50;21.50;;;;;4.70;83.49;100947.44;5024441;28;11547;-73
2021/12/05 07:07:14;;;;;;;;;21.25;18.75;;;;;4.79;83.42;100957.78;5030187;28;11521;-72
2021/12/05 07:09:42;;;;;;;;;19.00;17.75;;;;;4.71;83.14;100962.75;5030609;28;12757;-73
2021/12/05 07:15:08;;;;;;;;;21.25;21.25;;;;;4.89;83.09;100966.72;5026119;28;11639;-72
2021/12/05 07:23:35;;;;;;;;;21.50;21.50;;;;;4.76;82.22;100974.78;5015943;28;11564;-71
2021/12/05 07:42:11;;;;;;;;;15.75;15.75;;;;;4.78;82.42;100994.50;5030057;28;11461;-73
2021/12/05 07:44:38;;;;;;;;;19.50;18.00;;;;;4.73;81.94;101009.03;5032947;28;11551;-72
2021/12/05 07:47:35;;;;;;;;;17.50;17.50;;;;;4.81;81.60;101005.69;5004915;28;11543;-73
2021/12/05 07:50:20;;;;;;;;;25.75;22.75;;;;;4.90;81.47;101003.97;5034016;28;11557;-74
2021/12/05 07:52:52;;;;;;;;;18.50;17.25;;;;;4.90;81.66;101003.16;5035420;28;11552;-72
2021/12/05 07:55:51;;;;;;;;;12.75;12.75;;;;;4.86;81.49;101002.13;5030770;28;11671;-72
2021/12/05 07:58:43;;;;;;;;;18.00;18.00;;;;;4.81;81.53;101004.88;5037372;28;11634;-74
2021/12/05 08:16:28;;;;;;;;;17.00;17.00;;;;;4.65;81.30;100985.81;5054803;28;8866;-73
2021/12/05 08:19:24;;;;;;;;;18.75;18.75;;;;;4.83;81.09;100984.34;5034915;28;11647;-73
2021/12/05 08:22:10;;;;;;;;;22.00;20.00;;;;;5.03;80.51;100986.91;5021139;28;11538;-72
2021/12/05 08:25:11;;;;;;;;;38.50;38.50;;;;;5.04;80.81;100987.72;5000697;28;11552;-73
2021/12/05 08:27:46;;;;;;;;;24.25;24.25;;;;;5.11;80.90;100979.16;5014643;28;11633;-73
2021/12/05 08:30:26;;;;;;;;;23.50;23.50;;;;;5.14;80.82;100987.66;5014629;28;11663;-73
2021/12/05 08:37:21;;;;;;;;;17.00;17.00;;;;;5.13;79.85;100983.25;4992852;28;11544;-73
2021/12/05 09:31:17;;;;;;;;;36.75;33.50;;;;;5.19;78.82;101009.53;4974344;28;11553;-75
2021/12/05 10:13:39;;;;;;;;;24.25;24.25;;;;;5.14;79.45;101006.03;4992317;28;11672;-76
2021/12/05 10:44:11;;;;;;;;;24.75;24.75;;;;;5.66;80.08;101042.84;4989135;28;11634;-75
2021/12/05 10:46:41;;;;;;;;;25.25;25.25;;;;;5.73;80.35;101046.06;4988906;28;11589;-74
2021/12/05 10:49:12;;;;;;;;;26.50;23.00;;;;;5.53;79.46;101052.59;4994903;28;11562;-74
2021/12/05 10:52:14;;;;;;;;;32.50;30.25;;;;;5.78;79.61;101057.00;4995972;28;11587;-75
2021/12/05 10:54:41;;;;;;;;;18.50;18.50;;;;;5.72;78.67;101058.97;4990044;28;11627;-76
2021/12/05 10:57:13;;;;;;;;;21.00;21.00;;;;;5.46;78.09;101060.31;5006322;28;11564;-75
2021/12/05 10:59:44;;;;;;;;;23.75;20.00;;;;;5.36;78.37;101066.69;4997703;28;11573;-77
2021/12/05 11:02:30;;;;;;;;;26.75;26.75;;;;;5.20;79.04;101062.44;4990088;28;11659;-75
2021/12/05 11:05:34;;;;;;;;;21.25;19.00;;;;;5.32;79.19;101073.88;4995605;28;11550;-76
2021/12/05 11:08:38;;;;;;;;;16.50;16.50;;;;;5.62;78.45;101070.06;4993550;28;11553;-75
2021/12/05 11:11:35;;;;;;;;;20.00;19.00;;;;;5.63;77.94;101068.94;4997046;28;11545;-75
2021/12/05 11:14:34;;;;;;;;;15.25;15.25;;;;;5.43;77.31;101072.66;4995293;28;11546;-73
2021/12/05 11:17:27;;;;;;;;;24.75;24.75;;;;;5.62;77.25;101069.25;4987028;28;11714;-75
2021/12/05 11:20:17;;;;;;;;;21.50;21.50;;;;;5.73;76.88;101082.56;4991071;28;11667;-74
2021/12/05 11:22:49;;;;;;;;;16.75;16.75;;;;;5.66;76.88;101082.06;4996076;28;11552;-76
2021/12/05 11:25:18;;;;;;;;;16.00;16.00;;;;;5.73;76.81;101079.00;5003690;28;11593;-75
2021/12/05 11:27:53;;;;;;;;;19.25;19.25;;;;;5.73;76.82;101079.00;5010262;28;11664;-74
2021/12/05 11:30:31;;;;;;;;;21.25;21.25;;;;;5.49;77.53;101090.72;4994880;28;11563;-74
2021/12/05 11:33:06;;;;;;;;;14.25;13.50;;;;;5.65;77.02;101094.16;4994249;28;11572;-75
2021/12/05 11:35:36;;;;;;;;;20.00;20.00;;;;;5.58;77.38;101104.66;4994965;28;12438;-74
2021/12/05 11:38:19;;;;;;;;;23.00;21.75;;;;;5.45;77.11;101102.59;4991312;28;11551;-75
2021/12/05 11:40:58;;;;;;;;;30.50;30.25;;;;;5.50;77.97;101095.13;4990926;28;11652;-75
2021/12/05 11:43:35;;;;;;;;;34.75;29.25;;;;;5.45;78.26;101097.91;4995724;28;11573;-76
2021/12/05 11:46:13;;;;;;;;;28.75;28.75;;;;;5.38;78.11;101102.91;4993372;28;12349;-75
2021/12/05 11:48:54;;;;;;;;;24.50;24.50;;;;;5.14;77.57;101096.50;4993781;28;12439;-75
2021/12/05 11:51:53;;;;;;;;;19.50;18.25;;;;;5.18;77.59;101101.13;4991449;28;11672;-74
2021/12/05 11:54:51;;;;;;;;;23.75;21.50;;;;;5.14;78.16;101108.28;4996846;28;11572;-75
2021/12/05 11:57:26;;;;;;;;;10.00;9.00;;;;;5.12;78.60;101113.22;4995243;28;11597;-75
2021/12/05 12:00:00;;;;;;;;;19.75;17.75;;;;;5.01;78.20;101117.94;4996838;28;11538;-76
2021/12/05 12:02:37;;;;;;;;;18.00;18.00;;;;;5.12;77.89;101113.22;4994801;28;11562;-76
2021/12/05 12:05:13;;;;;;;;;16.25;16.25;;;;;4.99;77.83;101128.38;4995346;28;11551;-76
2021/12/05 12:07:45;;;;;;;;;18.00;18.00;;;;;5.03;77.44;101131.38;4988561;28;11567;-76
2021/12/05 12:10:33;;;;;;;;;21.00;21.00;;;;;5.07;77.69;101126.97;5009456;28;12284;-76
2021/12/05 12:13:19;;;;;;;;;27.00;20.00;;;;;5.24;78.24;101143.88;4993165;28;11592;-77
2021/12/05 12:15:58;;;;;;;;;20.25;20.25;;;;;5.17;78.02;101131.56;4994126;28;11558;-75
2021/12/05 12:18:32;;;;;;;;;22.50;22.00;;;;;5.10;77.96;101133.81;4993046;28;11654;-75
2021/12/05 12:21:05;;;;;;;;;26.00;26.00;;;;;5.14;78.19;101141.19;4987808;28;11572;-75
2021/12/05 12:23:33;;;;;;;;;27.00;23.50;;;;;5.11;77.90;101139.00;4995706;28;11575;-75
2021/12/05 12:26:22;;;;;;;;;25.00;25.00;;;;;5.18;77.88;101141.44;4994665;28;11560;-75
2021/12/05 12:28:50;;;;;;;;;26.75;26.75;;;;;5.10;77.72;101145.59;4992361;28;11584;-75
2021/12/05 12:31:31;;;;;;;;;23.25;19.25;;;;;5.16;77.63;101152.69;4993192;28;11559;-75
2021/12/05 12:34:15;;;;;;;;;17.75;16.50;;;;;4.91;77.02;101158.31;4994362;28;11572;-75
2021/12/05 12:36:55;;;;;;;;;27.50;26.00;;;;;5.11;77.51;101158.19;5006510;28;11574;-75
2021/12/05 12:39:32;;;;;;;;;26.75;25.75;;;;;5.04;77.37;101157.69;5003743;28;11575;-75
2021/12/05 12:42:25;;;;;;;;;23.00;21.75;;;;;5.15;77.88;101151.06;4987707;28;11568;-76
2021/12/05 12:44:59;;;;;;;;;19.75;19.75;;;;;5.08;77.62;101158.78;4994472;28;11564;-75
2021/12/05 12:47:42;;;;;;;;;29.25;25.00;;;;;5.26;77.89;101158.09;4991987;28;11577;-75
2021/12/05 12:50:51;;;;;;;;;22.50;22.50;;;;;5.41;77.62;101162.66;4992648;28;11636;-75
2021/12/05 12:53:39;;;;;;;;;32.25;28.00;;;;;5.30;77.52;101161.94;4997586;28;11575;-75
2021/12/05 12:56:28;;;;;;;;;22.50;21.00;;;;;5.24;77.75;101160.31;4990356;28;11583;-76
2021/12/05 12:59:10;;;;;;;;;19.75;19.75;;;;;5.11;77.85;101154.63;4976345;28;11614;-75
2021/12/05 13:02:14;;;;;;;;;32.75;32.75;;;;;5.10;78.33;101162.03;5007912;28;11588;-74
2021/12/05 13:10:32;;;;;;;;;21.25;21.00;;;;;5.17;78.34;101167.22;4994156;28;12378;-76
2021/12/05 13:13:13;;;;;;;;;25.00;25.00;;;;;5.28;78.34;101157.81;4993244;28;11572;-76
2021/12/05 13:15:57;;;;;;;;;21.25;19.75;;;;;5.08;78.15;101150.53;4989294;28;11568;-75
2021/12/05 13:18:32;;;;;;;;;33.00;29.50;;;;;5.16;78.15;101149.94;4987324;28;11669;-74
2021/12/05 13:21:06;;;;;;;;;25.75;25.75;;;;;5.37;77.80;101133.34;5004207;28;11586;-74
2021/12/05 13:23:50;;;;;;;;;25.75;25.75;;;;;4.90;78.30;101119.09;4996660;28;11578;-76
2021/12/05 13:26:46;;;;;;;;;23.25;23.00;;;;;4.65;79.27;101131.00;4989171;28;12356;-76
2021/12/05 13:29:14;;;;;;;;;24.00;24.00;;;;;4.72;79.05;101128.78;4991182;28;11585;-74
2021/12/05 13:32:16;;;;;;;;;26.50;26.00;;;;;4.67;79.67;101123.31;4992088;28;12382;-75
2021/12/05 13:34:50;;;;;;;;;25.50;25.50;;;;;4.56;79.98;101126.41;4993294;28;11538;-74
2021/12/05 13:37:23;;;;;;;;;23.00;23.00;;;;;4.63;80.04;101137.88;4991366;28;11581;-74
2021/12/05 13:40:15;;;;;;;;;29.00;29.00;;;;;4.80;80.29;101132.88;4991762;28;11635;-73
2021/12/05 13:43:00;;;;;;;;;23.00;22.00;;;;;4.87;79.52;101143.53;4981318;28;11593;-75
2021/12/05 13:45:27;;;;;;;;;23.75;23.25;;;;;4.81;79.82;101136.41;4986149;28;11575;-75
2021/12/05 13:47:55;;;;;;;;;29.00;26.25;;;;;4.76;80.41;101133.72;4994896;28;11564;-75
2021/12/05 13:50:43;;;;;;;;;26.25;26.25;;;;;4.70;80.40;101143.88;4996583;28;11667;-75
2021/12/05 13:53:11;;;;;;;;;24.75;22.75;;;;;4.59;80.50;101151.31;4993554;28;11725;-75
2021/12/05 13:55:56;;;;;;;;;22.00;20.75;;;;;4.62;80.08;101161.72;4991467;28;11564;-75
2021/12/05 13:58:46;;;;;;;;;17.75;17.75;;;;;4.42;79.83;101161.78;4993372;28;11554;-75
2021/12/05 14:01:43;;;;;;;;;35.25;29.50;;;;;4.33;80.27;101171.66;5007226;28;11561;-76
2021/12/05 14:04:21;;;;;;;;;19.50;19.50;;;;;4.25;80.38;101180.44;4991156;28;11649;-74
2021/12/05 14:07:05;;;;;;;;;15.50;15.50;;;;;4.16;80.76;101185.66;4992480;28;11550;-75
2021/12/05 14:09:43;;;;;;;;;19.00;19.00;;;;;4.34;80.56;101190.53;4992277;28;11679;-75
2021/12/05 14:12:11;;;;;;;;;18.25;18.25;;;;;4.11;81.08;101191.94;4987158;28;11587;-76
2021/12/05 14:14:44;;;;;;;;;34.50;31.25;;;;;4.26;80.44;101203.97;4992497;28;11556;-75
2021/12/05 14:17:33;;;;;;;;;24.25;24.25;;;;;4.29;80.65;101196.03;4980657;28;11560;-74
2021/12/05 14:20:08;;;;;;;;;23.00;22.50;;;;;4.39;80.71;101189.72;5001940;28;11575;-76
2021/12/05 14:22:44;;;;;;;;;29.00;25.75;;;;;4.26;80.26;101180.16;4997692;28;11714;-76
2021/12/05 14:25:18;;;;;;;;;27.25;24.25;;;;;4.37;79.39;101180.94;5011460;28;11583;-76
2021/12/05 14:27:59;;;;;;;;;32.25;31.50;;;;;4.22;80.61;101165.41;4996826;28;11678;-76
2021/12/05 14:30:34;;;;;;;;;39.50;38.00;;;;;4.13;80.92;101167.03;4988959;28;11638;-76
2021/12/05 14:33:03;;;;;;;;;46.00;38.00;;;;;4.33;80.80;101177.13;4995320;28;11624;-76
2021/12/05 14:35:58;;;;;;;;;53.00;45.50;;;;;4.31;80.48;101191.13;4991818;28;11573;-77
2021/12/05 14:38:26;;;;;;;;;40.75;39.50;;;;;4.24;80.43;101193.31;5008044;28;11615;-75
2021/12/05 14:41:32;;;;;;;;;32.25;31.00;;;;;4.21;80.08;101191.09;5003347;28;11597;-74
2021/12/05 14:44:00;;;;;;;;;31.00;24.75;;;;;4.17;80.29;101187.28;4996170;28;11561;-75
2021/12/05 14:46:28;;;;;;;;;21.75;21.75;;;;;4.11;80.63;101185.66;4996366;28;11701;-74
2021/12/05 14:49:02;;;;;;;;;31.25;29.75;;;;;4.01;80.52;101191.97;4996087;28;11657;-75
2021/12/05 14:51:38;;;;;;;;;33.75;28.50;;;;;4.06;80.82;101200.16;4990427;28;11546;-75
2021/12/05 14:54:07;;;;;;;;;44.00;42.75;;;;;4.16;80.84;101200.16;4997499;28;11634;-75
2021/12/05 14:56:36;;;;;;;;;63.00;47.67;;;;;4.16;80.58;101200.16;4996126;28;11599;-75
2021/12/05 14:59:12;;;;;;;;;65.00;54.00;;;;;4.14;80.42;101198.78;5011798;28;11682;-75
2021/12/05 15:01:46;;;;;;;;;56.50;48.75;;;;;4.22;80.63;101194.66;4988593;28;12362;-75
2021/12/05 15:04:20;;;;;;;;;33.75;33.75;;;;;4.21;80.62;101193.03;4996026;28;11581;-75
2021/12/05 15:06:49;;;;;;;;;45.25;39.50;;;;;4.13;80.84;101206.16;5011383;28;11568;-75
2021/12/05 15:09:48;;;;;;;;;29.75;29.75;;;;;4.13;80.96;101205.34;4995832;28;12365;-75
2021/12/05 15:12:23;;;;;;;;;33.75;28.50;;;;;4.04;80.57;101213.31;4996171;28;11544;-75
2021/12/05 15:14:58;;;;;;;;;50.25;44.50;;;;;4.09;80.76;101228.91;4994478;28;11602;-75
2021/12/05 15:17:30;;;;;;;;;21.00;21.00;;;;;4.14;80.54;101234.38;4987572;28;11703;-75
2021/12/05 15:20:05;;;;;;;;;26.50;26.25;;;;;4.00;80.77;101230.56;4993135;28;11572;-75
2021/12/05 15:22:46;;;;;;;;;33.00;33.00;;;;;4.11;81.20;101238.50;4989018;28;11593;-75
2021/12/05 15:25:17;;;;;;;;;41.33;40.33;;;;;4.20;80.67;101244.22;4994544;28;11567;-74
2021/12/05 15:28:07;;;;;;;;;43.25;41.75;;;;;4.30;80.64;101246.16;5005705;28;11569;-75
2021/12/05 15:30:45;;;;;;;;;59.00;47.50;;;;;4.20;80.45;101238.75;4994859;28;12115;-75
2021/12/05 15:33:35;;;;;;;;;44.00;40.75;;;;;4.18;80.00;101240.94;4988118;28;11583;-75
2021/12/05 15:36:17;;;;;;;;;30.00;30.00;;;;;4.08;80.30;101233.56;5007904;28;11593;-74
2021/12/05 15:39:19;;;;;;;;;58.00;46.25;;;;;4.12;80.27;101228.34;4994743;28;11644;-75
2021/12/05 15:42:37;;;;;;;;;72.00;57.33;;;;;4.07;80.75;101234.66;4994968;28;11569;-75
2021/12/05 15:45:09;;;;;;;;;60.00;51.00;;;;;4.11;81.35;101229.44;4995323;28;8904;-75
2021/12/05 15:47:41;;;;;;;;;51.00;45.00;;;;;4.21;80.32;101240.38;4992585;28;8845;-75
2021/12/05 15:50:39;;;;;;;;;47.00;41.33;;;;;4.25;80.53;101240.69;4994196;28;11598;-75
2021/12/05 15:53:38;;;;;;;;;38.50;35.75;;;;;4.25;80.98;101238.75;4993786;28;11720;-75
2021/12/05 15:56:33;;;;;;;;;29.75;26.75;;;;;4.14;80.83;101234.38;4986705;28;11585;-75
2021/12/05 15:59:36;;;;;;;;;11.50;11.00;;;;;4.28;80.44;101229.16;4985894;28;11585;-75
2021/12/05 16:02:32;;;;;;;;;32.00;29.75;;;;;4.28;80.82;101231.91;4994040;28;12307;-75
2021/12/05 16:05:28;;;;;;;;;43.50;40.00;;;;;4.23;80.92;101240.13;4990529;28;11695;-75
2021/12/05 16:08:28;;;;;;;;;30.25;25.25;;;;;4.20;80.94;101252.44;4988407;28;11587;-76
2021/12/05 16:11:24;;;;;;;;;37.50;37.50;;;;;4.15;80.53;101247.81;4987808;28;11603;-76
2021/12/05 16:13:57;;;;;;;;;33.50;29.25;;;;;4.29;80.44;101242.56;4994885;28;11571;-75
2021/12/05 16:16:52;;;;;;;;;36.00;34.75;;;;;4.08;80.07;101233.56;4994448;28;11673;-76
2021/12/05 16:19:35;;;;;;;;;30.50;29.50;;;;;4.11;80.10;101230.28;4992501;28;11664;-76
2021/12/05 16:22:32;;;;;;;;;34.75;30.75;;;;;4.10;79.98;101230.56;4986961;28;11593;-76
2021/12/05 16:25:18;;;;;;;;;50.50;45.50;;;;;4.06;80.44;101230.25;5006803;28;11564;-76
2021/12/05 16:27:50;;;;;;;;;54.25;46.00;;;;;3.97;80.43;101237.38;4979820;28;12365;-76
2021/12/05 16:30:23;;;;;;;;;38.75;38.75;;;;;4.08;80.46;101247.25;4985887;28;11596;-76
2021/12/05 16:33:18;;;;;;;;;65.00;56.00;;;;;4.14;80.34;101237.97;4978182;28;11634;-76
2021/12/05 16:35:49;;;;;;;;;36.50;33.75;;;;;4.05;80.22;101250.53;4994145;28;8866;-76
2021/12/05 16:38:47;;;;;;;;;35.25;34.25;;;;;4.27;80.16;101250.25;4993726;28;11680;-75
2021/12/05 16:41:53;;;;;;;;;54.33;48.00;;;;;4.44;79.72;101242.56;4991965;28;11583;-76
2021/12/05 16:44:52;;;;;;;;;34.25;34.25;;;;;4.22;80.04;101250.28;4993580;28;11676;-76
2021/12/05 16:47:23;;;;;;;;;58.00;47.25;;;;;4.42;79.81;101261.19;4993963;28;11574;-76
2021/12/05 16:49:53;;;;;;;;;52.25;45.75;;;;;4.46;79.35;101266.94;4993488;28;11580;-76
2021/12/05 16:52:33;;;;;;;;;39.50;37.75;;;;;4.53;79.09;101275.72;5008914;28;11685;-75
2021/12/05 16:55:30;;;;;;;;;41.50;41.00;;;;;4.49;79.41;101280.09;4993294;28;11600;-75
2021/12/05 16:58:25;;;;;;;;;35.50;32.25;;;;;4.33;79.79;101286.69;4989071;28;11639;-75
2021/12/05 17:01:21;;;;;;;;;35.25;33.75;;;;;4.47;79.56;101290.50;4992288;28;11607;-75
2021/12/05 17:03:49;;;;;;;;;38.50;36.50;;;;;4.52;79.56;101286.91;4985557;28;11600;-75
2021/12/05 17:06:18;;;;;;;;;33.00;32.50;;;;;4.51;80.23;101297.06;5008554;28;11573;-75
2021/12/05 17:08:47;;;;;;;;;42.50;40.75;;;;;4.47;79.98;101282.28;4993651;28;12387;-76
2021/12/05 17:11:38;;;;;;;;;25.50;25.50;;;;;4.54;79.77;101273.78;4992809;28;11675;-76
2021/12/05 17:14:24;;;;;;;;;34.50;34.50;;;;;4.47;79.23;101274.06;4992863;28;11568;-75
2021/12/05 17:17:05;;;;;;;;;45.75;41.25;;;;;4.48;79.94;101278.44;4988596;28;11603;-75
2021/12/05 17:19:34;;;;;;;;;54.25;47.25;;;;;4.61;79.50;101275.16;4992199;28;11695;-76
2021/12/05 17:22:05;;;;;;;;;36.00;35.00;;;;;4.50;79.87;101280.91;4991255;28;11634;-75
2021/12/05 17:24:47;;;;;;;;;50.25;44.50;;;;;4.56;79.72;101285.28;4986570;28;11588;-75
2021/12/05 17:27:17;;;;;;;;;39.00;39.00;;;;;4.77;78.61;101294.31;4993326;28;11622;-76
2021/12/05 17:29:45;;;;;;;;;33.75;32.75;;;;;4.72;78.94;101295.13;4993752;28;11629;-76
2021/12/05 17:32:16;;;;;;;;;44.50;43.00;;;;;4.71;78.54;101297.03;5002374;28;11674;-75
2021/12/05 17:34:50;;;;;;;;;52.00;47.75;;;;;4.65;78.77;101300.88;4993377;28;11668;-75
2021/12/05 17:37:25;;;;;;;;;65.25;53.25;;;;;4.61;79.10;101302.53;4972306;28;11535;-75
2021/12/05 17:39:54;;;;;;;;;57.50;49.25;;;;;4.63;78.94;101299.53;4994009;28;11502;-75
2021/12/05 17:42:26;;;;;;;;;65.33;52.00;;;;;4.72;78.04;101290.47;4989899;28;12344;-75
2021/12/05 17:44:57;;;;;;;;;44.75;41.75;;;;;4.65;77.99;101283.63;5007876;28;12389;-75
2021/12/05 17:47:27;;;;;;;;;72.33;59.00;;;;;4.68;78.65;101280.34;4982977;28;11593;-74
2021/12/05 17:49:58;;;;;;;;;59.50;49.75;;;;;4.68;78.28;101275.69;4991438;28;11581;-74
2021/12/05 17:52:27;;;;;;;;;53.33;47.67;;;;;4.70;78.83;101283.63;4992931;28;11530;-74
2021/12/05 17:57:39;;;;;;;;;34.50;33.50;;;;;4.43;77.93;101292.94;4993462;28;11652;-76
2021/12/05 18:00:23;;;;;;;;;41.75;39.00;;;;;4.61;77.74;101290.78;4990017;28;11592;-75
2021/12/05 18:02:54;;;;;;;;;37.50;36.00;;;;;4.66;77.84;101298.97;4968553;28;11662;-75
2021/12/05 18:05:50;;;;;;;;;35.75;35.00;;;;;4.53;77.77;101303.09;4990642;28;11653;-75
2021/12/05 18:08:47;;;;;;;;;27.25;24.00;;;;;4.68;77.00;101296.78;4991476;28;11603;-76
2021/12/05 18:11:23;;;;;;;;;20.25;20.25;;;;;4.63;77.11;101294.88;4971542;28;11623;-75
2021/12/05 18:13:57;;;;;;;;;28.00;26.25;;;;;4.62;77.63;101298.72;4992026;28;11052;-75
2021/12/05 18:16:54;;;;;;;;;50.50;43.25;;;;;4.61;77.37;101313.50;4991348;28;11657;-75
2021/12/05 18:19:36;;;;;;;;;37.75;36.25;;;;;4.61;77.60;101316.25;4989587;28;11597;-75
2021/12/05 18:22:08;;;;;;;;;29.00;27.25;;;;;4.63;77.62;101311.31;4986863;28;11572;-75